createdAt,value
2022-12-12T00:01:02.914Z,29.05
2022-12-12T00:02:06.841Z,27.63
2022-12-12T00:03:09.418Z,27.65
2022-12-12T00:04:12.217Z,25.10
2022-12-12T00:05:16.286Z,25.48
2022-12-12T00:06:19.489Z,23.80
2022-12-12T00:07:21.701Z,22.20
2022-12-12T00:08:24.150Z,22.55
2022-12-12T00:09:26.511Z,21.45
2022-12-12T00:10:29.402Z,19.25
2022-12-12T00:11:32.030Z,19.58
2022-12-12T00:12:34.419Z,17.60
2022-12-12T00:13:37.519Z,17.73
2022-12-12T00:14:39.930Z,16.35
2022-12-12T00:15:42.248Z,17.13
2022-12-12T00:16:45.041Z,16.83
2022-12-12T00:17:47.321Z,17.08
2022-12-12T00:18:49.709Z,15.48
2022-12-12T00:19:52.194Z,13.55
2022-12-12T00:20:56.016Z,13.43
2022-12-12T00:21:58.270Z,14.98
2022-12-12T00:23:00.544Z,12.63
2022-12-12T00:24:02.856Z,13.13
2022-12-12T00:25:05.565Z,12.38
2022-12-12T00:26:13.960Z,12.43
2022-12-12T00:27:16.167Z,12.43
2022-12-12T00:28:18.432Z,13.80
2022-12-12T00:29:20.665Z,13.98
2022-12-12T00:30:23.072Z,14.77
2022-12-12T00:31:26.107Z,13.85
2022-12-12T00:32:28.725Z,12.77
2022-12-12T00:33:30.984Z,13.65
2022-12-12T00:34:33.281Z,13.30
2022-12-12T00:35:35.554Z,12.23
2022-12-12T00:36:38.116Z,12.73
2022-12-12T00:37:40.461Z,13.35
2022-12-12T00:38:42.742Z,12.13
2022-12-12T00:39:44.956Z,10.38
2022-12-12T00:40:48.032Z,11.60
2022-12-12T00:41:50.512Z,12.63
2022-12-12T00:42:53.467Z,11.50
2022-12-12T00:43:55.782Z,10.60
2022-12-12T00:44:58.201Z,11.90
2022-12-12T00:46:01.537Z,12.90
2022-12-12T00:47:03.975Z,13.15
2022-12-12T00:48:07.156Z,11.70
2022-12-12T00:49:09.631Z,12.20
2022-12-12T00:50:11.952Z,12.52
2022-12-12T00:51:18.886Z,11.13
2022-12-12T00:52:21.245Z,10.63
2022-12-12T00:53:23.963Z,11.48
2022-12-12T00:54:26.222Z,11.98
2022-12-12T00:55:28.734Z,12.07
2022-12-12T00:56:32.118Z,13.07
2022-12-12T00:57:34.394Z,13.80
2022-12-12T00:58:36.911Z,12.55
2022-12-12T00:59:39.129Z,12.18
2022-12-12T01:00:41.667Z,13.60
2022-12-12T01:01:45.976Z,11.98
2022-12-12T01:02:48.864Z,11.85
2022-12-12T01:03:51.921Z,15.15
2022-12-12T01:04:54.171Z,12.65
2022-12-12T01:05:56.393Z,12.85
2022-12-12T01:06:58.712Z,13.18
2022-12-12T01:08:01.000Z,12.55
2022-12-12T01:09:03.376Z,12.05
2022-12-12T01:10:08.136Z,13.15
2022-12-12T01:11:12.207Z,11.02
2022-12-12T01:12:14.472Z,11.63
2022-12-12T01:13:16.899Z,10.95
2022-12-12T01:14:19.268Z,12.32
2022-12-12T01:15:21.755Z,12.20
2022-12-12T01:16:24.746Z,11.48
2022-12-12T01:17:27.440Z,13.10
2022-12-12T01:18:29.808Z,11.93
2022-12-12T01:19:32.330Z,13.32
2022-12-12T01:20:34.716Z,13.70
2022-12-12T01:21:37.373Z,14.60
2022-12-12T01:22:39.668Z,16.15
2022-12-12T01:23:42.448Z,15.10
2022-12-12T01:24:44.696Z,15.45
2022-12-12T01:25:47.038Z,13.23
2022-12-12T01:26:49.800Z,13.30
2022-12-12T01:27:52.090Z,13.10
2022-12-12T01:28:54.417Z,14.02
2022-12-12T01:29:58.433Z,16.52
2022-12-12T01:31:00.752Z,15.20
2022-12-12T01:32:03.223Z,14.95
2022-12-12T01:33:05.505Z,13.73
2022-12-12T01:34:07.872Z,14.20
2022-12-12T01:35:10.952Z,16.95
2022-12-12T01:36:18.385Z,15.70
2022-12-12T01:37:20.891Z,14.48
2022-12-12T01:38:24.722Z,14.70
2022-12-12T01:39:26.990Z,14.00
2022-12-12T01:40:30.916Z,13.23
2022-12-12T01:41:33.905Z,14.45
2022-12-12T01:42:36.185Z,13.90
2022-12-12T01:43:38.739Z,13.27
2022-12-12T01:44:47.353Z,14.38
2022-12-12T01:45:58.407Z,13.68
2022-12-12T01:47:01.426Z,13.15
2022-12-12T01:48:05.547Z,14.43
2022-12-12T01:49:36.868Z,14.68
2022-12-12T01:50:40.932Z,12.50
2022-12-12T01:51:45.080Z,14.93
2022-12-12T01:52:49.782Z,14.48
2022-12-12T01:54:04.331Z,12.73
2022-12-12T01:55:10.980Z,14.00
2022-12-12T01:56:16.889Z,14.60
2022-12-12T01:57:26.549Z,14.68
2022-12-12T01:58:30.613Z,12.95
2022-12-12T01:59:34.208Z,13.90
2022-12-12T02:00:36.632Z,12.75
2022-12-12T02:01:40.166Z,11.40
2022-12-12T02:02:44.248Z,14.15
2022-12-12T02:03:48.934Z,14.05
2022-12-12T02:04:51.236Z,13.13
2022-12-12T02:05:57.681Z,12.55
2022-12-12T02:06:59.927Z,14.95
2022-12-12T02:08:04.389Z,14.00
2022-12-12T02:09:09.591Z,14.02
2022-12-12T02:10:11.955Z,16.10
2022-12-12T02:11:14.277Z,13.73
2022-12-12T02:12:16.649Z,14.25
2022-12-12T02:13:23.345Z,14.35
2022-12-12T02:14:38.625Z,16.73
2022-12-12T02:16:17.845Z,14.50
2022-12-12T02:18:07.598Z,13.00
2022-12-12T02:19:21.025Z,14.07
2022-12-12T02:20:59.931Z,12.77
2022-12-12T02:22:42.351Z,12.05
2022-12-12T02:24:02.625Z,13.52
2022-12-12T02:25:25.470Z,12.02
2022-12-12T02:26:41.403Z,12.95
2022-12-12T02:28:38.664Z,13.25
2022-12-12T02:30:03.497Z,12.18
2022-12-12T02:31:16.613Z,13.30
2022-12-12T02:32:54.670Z,12.93
2022-12-12T02:34:02.626Z,15.60
2022-12-12T02:35:20.380Z,15.07
2022-12-12T02:36:49.475Z,13.45
2022-12-12T02:38:09.104Z,12.85
2022-12-12T02:39:37.527Z,14.32
2022-12-12T02:40:58.246Z,13.63
2022-12-12T02:42:05.516Z,12.57
2022-12-12T02:43:19.223Z,13.30
2022-12-12T02:44:35.925Z,12.48
2022-12-12T02:45:48.475Z,12.05
2022-12-12T02:47:06.261Z,14.13
2022-12-12T02:48:14.551Z,13.07
2022-12-12T02:49:41.112Z,11.98
2022-12-12T02:50:47.074Z,14.50
2022-12-12T02:51:51.367Z,13.18
2022-12-12T02:52:53.641Z,13.25
2022-12-12T02:53:58.207Z,13.52
2022-12-12T02:55:01.051Z,14.45
2022-12-12T02:56:07.787Z,12.57
2022-12-12T02:57:21.076Z,12.95
2022-12-12T02:58:23.377Z,12.52
2022-12-12T02:59:37.863Z,12.48
2022-12-12T03:01:11.385Z,14.80
2022-12-12T03:02:32.047Z,13.68
2022-12-12T03:04:01.062Z,15.05
2022-12-12T03:05:46.995Z,13.30
2022-12-12T03:07:40.464Z,13.73
2022-12-12T03:09:20.845Z,15.10
2022-12-12T03:10:50.868Z,14.00
2022-12-12T03:12:11.665Z,13.32
2022-12-12T03:13:25.222Z,13.88
2022-12-12T03:15:02.466Z,13.85
2022-12-12T03:16:15.411Z,12.65
2022-12-12T03:17:39.079Z,14.43
2022-12-12T03:19:10.172Z,13.00
2022-12-12T03:20:22.295Z,15.00
2022-12-12T03:21:51.545Z,13.15
2022-12-12T03:23:24.614Z,15.05
2022-12-12T03:24:44.167Z,13.15
2022-12-12T03:26:00.444Z,13.40
2022-12-12T03:27:15.203Z,14.40
2022-12-12T03:28:31.043Z,14.32
2022-12-12T03:30:01.901Z,15.90
2022-12-12T03:31:08.939Z,16.15
2022-12-12T03:32:15.266Z,15.38
2022-12-12T03:33:25.839Z,14.43
2022-12-12T03:34:34.447Z,14.25
2022-12-12T03:35:41.814Z,12.98
2022-12-12T03:36:47.411Z,14.38
2022-12-12T03:37:55.088Z,14.60
2022-12-12T03:39:06.167Z,15.00
2022-12-12T03:40:13.885Z,13.95
2022-12-12T03:41:20.465Z,12.32
2022-12-12T03:42:31.837Z,12.05
2022-12-12T03:43:57.476Z,13.63
2022-12-12T03:45:06.651Z,11.77
2022-12-12T03:46:28.999Z,10.43
2022-12-12T03:47:41.318Z,11.70
2022-12-12T03:49:11.856Z,10.35
2022-12-12T03:50:21.563Z,11.50
2022-12-12T03:51:28.307Z,11.32
2022-12-12T03:52:55.747Z,10.60
2022-12-12T03:54:10.004Z,10.27
2022-12-12T03:55:24.235Z,10.20
2022-12-12T03:56:37.478Z,10.88
2022-12-12T03:58:01.845Z,10.45
2022-12-12T03:59:14.230Z,10.48
2022-12-12T04:00:16.745Z,9.98
2022-12-12T04:01:23.390Z,11.40
2022-12-12T04:02:42.125Z,9.70
2022-12-12T04:04:03.557Z,9.00
2022-12-12T04:05:14.206Z,10.00
2022-12-12T04:06:36.317Z,9.82
2022-12-12T04:08:04.676Z,9.55
2022-12-12T04:09:35.510Z,9.30
2022-12-12T04:11:04.872Z,10.15
2022-12-12T04:12:48.930Z,10.18
2022-12-12T04:14:00.844Z,11.70
2022-12-12T04:15:08.911Z,10.38
2022-12-12T04:16:14.188Z,10.68
2022-12-12T04:17:22.093Z,10.13
2022-12-12T04:18:42.629Z,9.90
2022-12-12T04:20:14.317Z,11.07
2022-12-12T04:21:41.501Z,10.27
2022-12-12T04:23:10.802Z,10.35
2022-12-12T04:24:38.895Z,14.02
2022-12-12T04:26:13.574Z,11.13
2022-12-12T04:27:27.422Z,9.90
2022-12-12T04:28:32.299Z,10.98
2022-12-12T04:29:50.656Z,11.35
2022-12-12T04:30:53.306Z,13.30
2022-12-12T04:32:12.969Z,11.25
2022-12-12T04:33:20.764Z,10.63
2022-12-12T04:34:33.971Z,11.70
2022-12-12T04:35:41.763Z,12.43
2022-12-12T04:36:46.097Z,12.10
2022-12-12T04:37:56.963Z,11.38
2022-12-12T04:39:01.112Z,12.93
2022-12-12T04:40:06.229Z,12.82
2022-12-12T04:41:12.063Z,13.25
2022-12-12T04:42:21.542Z,12.00
2022-12-12T04:43:38.352Z,12.52
2022-12-12T04:44:42.502Z,14.52
2022-12-12T04:45:56.125Z,12.75
2022-12-12T04:47:01.227Z,13.30
2022-12-12T04:48:07.662Z,15.98
2022-12-12T04:49:18.504Z,14.68
2022-12-12T04:50:23.741Z,13.02
2022-12-12T04:51:30.800Z,14.60
2022-12-12T04:52:34.653Z,14.80
2022-12-12T04:53:44.016Z,16.13
2022-12-12T04:55:19.216Z,14.73
2022-12-12T04:56:27.749Z,13.93
2022-12-12T04:57:35.308Z,13.32
2022-12-12T04:58:39.576Z,12.55
2022-12-12T04:59:41.963Z,13.52
2022-12-12T05:00:51.010Z,14.75
2022-12-12T05:02:07.754Z,17.15
2022-12-12T05:03:12.609Z,14.68
2022-12-12T05:04:33.599Z,14.88
2022-12-12T05:05:51.281Z,15.90
2022-12-12T05:07:15.358Z,12.65
2022-12-12T05:08:36.244Z,13.52
2022-12-12T05:09:39.063Z,14.27
2022-12-12T05:10:46.225Z,14.63
2022-12-12T05:11:48.781Z,16.40
2022-12-12T05:12:56.701Z,13.73
2022-12-12T05:13:58.959Z,14.23
2022-12-12T05:15:02.712Z,16.42
2022-12-12T05:16:18.836Z,15.35
2022-12-12T05:17:30.695Z,15.70
2022-12-12T05:18:32.966Z,14.85
2022-12-12T05:19:35.303Z,15.55
2022-12-12T05:20:38.001Z,15.15
2022-12-12T05:21:40.222Z,14.40
2022-12-12T05:22:42.519Z,15.38
2022-12-12T05:23:45.064Z,17.40
2022-12-12T05:24:47.296Z,14.40
2022-12-12T05:25:49.526Z,15.35
2022-12-12T05:26:51.793Z,15.90
2022-12-12T05:27:54.110Z,14.73
2022-12-12T05:28:57.558Z,14.13
2022-12-12T05:30:02.226Z,16.65
2022-12-12T05:31:04.741Z,15.45
2022-12-12T05:32:07.373Z,17.23
2022-12-12T05:33:09.637Z,18.13
2022-12-12T05:34:11.936Z,16.42
2022-12-12T05:35:14.805Z,14.43
2022-12-12T05:36:17.687Z,15.85
2022-12-12T05:37:20.088Z,14.55
2022-12-12T05:38:22.310Z,14.27
2022-12-12T05:39:24.540Z,14.20
2022-12-12T05:40:27.201Z,16.02
2022-12-12T05:41:29.450Z,15.20
2022-12-12T05:42:31.677Z,14.20
2022-12-12T05:43:34.267Z,13.23
2022-12-12T05:44:36.521Z,12.68
2022-12-12T05:45:38.786Z,13.55
2022-12-12T05:46:41.062Z,14.25
2022-12-12T05:47:43.328Z,13.75
2022-12-12T05:48:50.484Z,13.07
2022-12-12T05:49:52.914Z,13.50
2022-12-12T05:50:55.733Z,13.32
2022-12-12T05:51:57.981Z,13.82
2022-12-12T05:53:00.260Z,13.68
2022-12-12T05:54:02.534Z,13.73
2022-12-12T05:55:06.000Z,13.52
2022-12-12T05:56:11.369Z,14.05
2022-12-12T05:57:14.689Z,12.30
2022-12-12T05:58:17.165Z,12.52
2022-12-12T05:59:19.409Z,13.43
2022-12-12T06:00:21.778Z,13.55
2022-12-12T06:01:24.182Z,14.00
2022-12-12T06:02:26.628Z,12.55
2022-12-12T06:03:28.863Z,16.25
2022-12-12T06:04:31.197Z,13.63
2022-12-12T06:05:33.623Z,14.23
2022-12-12T06:06:35.851Z,12.80
2022-12-12T06:07:38.108Z,14.57
2022-12-12T06:08:40.488Z,13.13
2022-12-12T06:09:42.914Z,13.20
2022-12-12T06:10:45.942Z,13.55
2022-12-12T06:11:48.197Z,13.70
2022-12-12T06:12:50.770Z,11.77
2022-12-12T06:13:53.005Z,11.88
2022-12-12T06:14:55.221Z,12.23
2022-12-12T06:15:57.588Z,11.40
2022-12-12T06:16:59.914Z,12.80
2022-12-12T06:18:02.136Z,13.07
2022-12-12T06:19:04.872Z,13.90
2022-12-12T06:20:08.189Z,12.75
2022-12-12T06:21:13.009Z,12.05
2022-12-12T06:22:15.480Z,13.35
2022-12-12T06:23:17.767Z,12.45
2022-12-12T06:24:20.189Z,12.70
2022-12-12T06:25:22.520Z,13.68
2022-12-12T06:26:24.850Z,12.20
2022-12-12T06:27:28.038Z,11.60
2022-12-12T06:28:30.353Z,11.23
2022-12-12T06:29:32.670Z,12.43
2022-12-12T06:30:35.001Z,12.98
2022-12-12T06:31:37.370Z,12.57
2022-12-12T06:32:39.759Z,11.98
2022-12-12T06:33:43.245Z,13.48
2022-12-12T06:34:45.560Z,11.57
2022-12-12T06:36:01.793Z,11.55
2022-12-12T06:37:06.261Z,12.70
2022-12-12T06:38:08.548Z,11.52
2022-12-12T06:39:10.869Z,11.20
2022-12-12T06:40:13.300Z,10.73
2022-12-12T06:41:15.953Z,11.07
2022-12-12T06:42:18.199Z,11.65
2022-12-12T06:43:20.523Z,10.88
2022-12-12T06:44:22.832Z,12.23
2022-12-12T06:45:25.081Z,11.43
2022-12-12T06:46:29.019Z,9.80
2022-12-12T06:47:31.312Z,11.85
2022-12-12T06:48:35.211Z,10.43
2022-12-12T06:49:37.457Z,10.15
2022-12-12T06:50:44.080Z,10.48
2022-12-12T06:51:46.820Z,9.65
2022-12-12T06:52:49.077Z,9.20
2022-12-12T06:53:51.594Z,10.27
2022-12-12T06:54:53.868Z,10.75
2022-12-12T06:55:56.213Z,9.65
2022-12-12T06:56:58.421Z,9.48
2022-12-12T06:58:00.680Z,9.27
2022-12-12T06:59:02.940Z,10.98
2022-12-12T07:00:05.723Z,8.95
2022-12-12T07:01:08.224Z,10.00
2022-12-12T07:02:12.348Z,10.38
2022-12-12T07:03:14.622Z,9.85
2022-12-12T07:04:16.986Z,9.48
2022-12-12T07:05:19.288Z,8.98
2022-12-12T07:06:23.367Z,9.45
2022-12-12T07:07:25.725Z,8.60
2022-12-12T07:08:30.876Z,11.18
2022-12-12T07:09:33.248Z,10.15
2022-12-12T07:10:36.303Z,9.00
2022-12-12T07:11:39.490Z,9.63
2022-12-12T07:12:45.426Z,9.60
2022-12-12T07:13:50.751Z,9.18
2022-12-12T07:14:53.065Z,8.45
2022-12-12T07:15:56.071Z,9.15
2022-12-12T07:16:58.716Z,8.95
2022-12-12T07:18:01.088Z,9.20
2022-12-12T07:19:04.142Z,10.30
2022-12-12T07:20:06.972Z,8.20
2022-12-12T07:21:11.979Z,8.98
2022-12-12T07:22:14.224Z,8.98
2022-12-12T07:23:16.513Z,9.35
2022-12-12T07:24:19.182Z,10.05
2022-12-12T07:25:21.672Z,9.93
2022-12-12T07:26:24.631Z,10.20
2022-12-12T07:27:26.974Z,10.00
2022-12-12T07:28:29.369Z,9.82
2022-12-12T07:29:31.707Z,9.50
2022-12-12T07:30:34.683Z,8.57
2022-12-12T07:31:37.209Z,10.65
2022-12-12T07:32:39.495Z,10.18
2022-12-12T07:33:44.529Z,9.68
2022-12-12T07:34:47.211Z,9.90
2022-12-12T07:35:49.409Z,10.30
2022-12-12T07:36:51.770Z,9.30
2022-12-12T07:37:54.496Z,9.20
2022-12-12T07:38:56.792Z,9.00
2022-12-12T07:39:59.043Z,9.93
2022-12-12T07:41:20.876Z,10.68
2022-12-12T07:42:23.871Z,9.60
2022-12-12T07:43:26.600Z,9.40
2022-12-12T07:44:29.242Z,9.60
2022-12-12T07:45:31.767Z,8.90
2022-12-12T07:46:34.190Z,8.80
2022-12-12T07:47:36.621Z,8.93
2022-12-12T07:48:38.883Z,7.90
2022-12-12T07:49:41.218Z,9.65
2022-12-12T07:50:43.538Z,9.48
2022-12-12T07:51:49.133Z,8.98
2022-12-12T07:54:07.177Z,8.63
2022-12-12T07:55:35.625Z,8.20
2022-12-12T07:56:38.065Z,8.85
2022-12-12T07:57:41.422Z,8.75
2022-12-12T07:58:44.060Z,8.90
2022-12-12T07:59:46.498Z,8.80
2022-12-12T08:00:49.032Z,9.00
2022-12-12T08:01:51.692Z,8.48
2022-12-12T08:02:55.264Z,8.82
2022-12-12T08:03:57.558Z,9.75
2022-12-12T08:04:59.828Z,9.38
2022-12-12T08:06:05.967Z,8.07
2022-12-12T08:07:08.816Z,7.60
2022-12-12T08:08:11.589Z,8.93
2022-12-12T08:09:14.001Z,9.05
2022-12-12T08:10:16.387Z,8.93
2022-12-12T08:11:21.531Z,9.10
2022-12-12T08:12:24.283Z,9.07
2022-12-12T08:13:26.509Z,9.23
2022-12-12T08:14:28.857Z,9.10
2022-12-12T08:15:31.184Z,8.50
2022-12-12T08:16:33.437Z,10.10
2022-12-12T08:17:35.696Z,8.07
2022-12-12T08:18:38.173Z,9.40
2022-12-12T08:19:40.402Z,8.43
2022-12-12T08:20:42.730Z,9.20
2022-12-12T08:21:45.121Z,9.50
2022-12-12T08:22:47.401Z,9.50
2022-12-12T08:23:50.158Z,7.78
2022-12-12T08:24:52.509Z,8.02
2022-12-12T08:25:54.977Z,9.48
2022-12-12T08:26:57.418Z,9.75
2022-12-12T08:27:59.679Z,8.90
2022-12-12T08:29:01.993Z,8.32
2022-12-12T08:30:05.029Z,8.50
2022-12-12T08:31:08.343Z,8.00
2022-12-12T08:32:10.858Z,8.52
2022-12-12T08:33:13.091Z,8.98
2022-12-12T08:34:15.351Z,8.80
2022-12-12T08:35:17.655Z,10.32
2022-12-12T08:36:22.683Z,8.73
2022-12-12T08:37:47.855Z,8.33
2022-12-12T08:38:51.506Z,9.48
2022-12-12T08:39:55.732Z,8.02
2022-12-12T08:41:02.470Z,7.93
2022-12-12T08:42:04.739Z,8.38
2022-12-12T08:43:07.604Z,8.77
2022-12-12T08:44:13.522Z,7.85
2022-12-12T08:45:16.345Z,7.55
2022-12-12T08:46:20.155Z,7.70
2022-12-12T08:47:22.649Z,9.43
2022-12-12T08:48:25.729Z,9.10
2022-12-12T08:49:28.311Z,8.10
2022-12-12T08:50:30.586Z,7.70
2022-12-12T08:51:33.020Z,8.40
2022-12-12T08:52:35.284Z,7.80
2022-12-12T08:53:37.783Z,8.65
2022-12-12T08:54:40.238Z,7.35
2022-12-12T08:55:42.438Z,7.60
2022-12-12T08:56:44.830Z,8.20
2022-12-12T08:57:47.239Z,7.15
2022-12-12T08:58:50.180Z,8.88
2022-12-12T08:59:52.604Z,8.20
2022-12-12T09:00:56.635Z,7.25
2022-12-12T09:01:58.967Z,8.82
2022-12-12T09:03:01.358Z,7.38
2022-12-12T09:04:26.149Z,8.00
2022-12-12T09:05:28.402Z,8.82
2022-12-12T09:06:30.633Z,8.27
2022-12-12T09:07:32.928Z,7.65
2022-12-12T09:08:35.227Z,8.07
2022-12-12T09:09:37.522Z,7.95
2022-12-12T09:10:41.165Z,8.23
2022-12-12T09:11:43.965Z,8.43
2022-12-12T09:12:46.251Z,7.30
2022-12-12T09:13:48.584Z,7.80
2022-12-12T09:14:51.077Z,7.53
2022-12-12T09:15:53.435Z,7.50
2022-12-12T09:16:55.760Z,8.32
2022-12-12T09:17:58.073Z,8.50
2022-12-12T09:19:00.349Z,6.70
2022-12-12T09:20:03.499Z,8.02
2022-12-12T09:21:06.343Z,7.70
2022-12-12T09:22:08.846Z,7.53
2022-12-12T09:23:11.138Z,6.53
2022-12-12T09:24:13.426Z,7.45
2022-12-12T09:25:16.144Z,7.20
2022-12-12T09:26:18.597Z,7.00
2022-12-12T09:27:20.851Z,7.18
2022-12-12T09:28:25.343Z,7.05
2022-12-12T09:29:27.704Z,7.97
2022-12-12T09:30:30.100Z,6.63
2022-12-12T09:31:32.504Z,8.02
2022-12-12T09:32:34.991Z,8.10
2022-12-12T09:33:38.159Z,8.20
2022-12-12T09:34:40.807Z,7.45
2022-12-12T09:35:43.764Z,7.72
2022-12-12T09:36:46.066Z,8.30
2022-12-12T09:37:48.317Z,7.53
2022-12-12T09:38:50.771Z,7.65
2022-12-12T09:39:53.123Z,6.68
2022-12-12T09:41:18.401Z,9.00
2022-12-12T09:42:29.153Z,7.63
2022-12-12T09:43:40.402Z,8.48
2022-12-12T09:44:42.660Z,7.80
2022-12-12T09:45:46.092Z,9.18
2022-12-12T09:47:08.021Z,8.38
2022-12-12T09:48:20.154Z,7.35
2022-12-12T09:49:30.941Z,8.15
2022-12-12T09:50:39.562Z,7.70
2022-12-12T09:51:46.051Z,7.47
2022-12-12T09:52:48.976Z,7.45
2022-12-12T09:53:51.614Z,7.45
2022-12-12T09:54:54.314Z,7.15
2022-12-12T09:56:11.011Z,7.22
2022-12-12T09:57:25.013Z,7.15
2022-12-12T09:58:36.168Z,5.90
2022-12-12T10:00:05.813Z,6.45
2022-12-12T10:01:40.313Z,7.25
2022-12-12T10:02:55.805Z,6.18
2022-12-12T10:04:20.427Z,6.45
2022-12-12T10:05:57.313Z,6.35
2022-12-12T10:07:48.907Z,7.35
2022-12-12T10:09:18.958Z,6.10
2022-12-12T10:10:31.794Z,6.63
2022-12-12T10:11:54.579Z,6.22
2022-12-12T10:12:59.526Z,6.90
2022-12-12T10:14:05.607Z,6.50
2022-12-12T10:15:21.825Z,6.53
2022-12-12T10:16:24.260Z,6.22
2022-12-12T10:17:44.346Z,7.63
2022-12-12T10:18:50.386Z,7.15
2022-12-12T10:19:57.262Z,5.90
2022-12-12T10:21:02.882Z,6.40
2022-12-12T10:22:21.310Z,6.60
2022-12-12T10:23:38.295Z,6.57
2022-12-12T10:24:48.809Z,6.85
2022-12-12T10:26:05.168Z,6.32
2022-12-12T10:27:12.566Z,6.25
2022-12-12T10:28:17.384Z,7.13
2022-12-12T10:29:22.543Z,6.70
2022-12-12T10:30:25.012Z,7.18
2022-12-12T10:31:47.518Z,7.15
2022-12-12T10:33:10.459Z,6.95
2022-12-12T10:34:42.057Z,6.78
2022-12-12T10:36:13.336Z,6.57
2022-12-12T10:37:44.352Z,6.68
2022-12-12T10:39:02.836Z,8.15
2022-12-12T10:40:18.711Z,6.38
2022-12-12T10:41:37.544Z,6.88
2022-12-12T10:43:23.604Z,5.68
2022-12-12T10:44:50.758Z,6.55
2022-12-12T10:46:30.054Z,6.80
2022-12-12T10:47:38.385Z,6.88
2022-12-12T10:48:41.819Z,5.95
2022-12-12T10:49:44.177Z,5.90
2022-12-12T10:50:51.280Z,6.38
2022-12-12T10:51:55.748Z,6.55
2022-12-12T10:52:58.341Z,7.20
2022-12-12T10:54:00.947Z,7.07
2022-12-12T10:55:08.990Z,6.95
2022-12-12T10:56:20.025Z,7.03
2022-12-12T10:57:28.168Z,6.97
2022-12-12T10:58:42.138Z,5.32
2022-12-12T10:59:57.139Z,6.68
2022-12-12T11:01:05.449Z,7.40
2022-12-12T11:02:38.051Z,7.03
2022-12-12T11:03:48.599Z,6.10
2022-12-12T11:05:09.289Z,6.88
2022-12-12T11:06:33.101Z,13.27
2022-12-12T11:07:40.843Z,9.10
2022-12-12T11:08:55.739Z,7.53
2022-12-12T11:10:01.882Z,7.65
2022-12-12T11:11:21.401Z,8.52
2022-12-12T11:12:33.399Z,6.70
2022-12-12T11:14:06.382Z,7.68
2022-12-12T11:15:17.278Z,6.68
2022-12-12T11:16:39.881Z,7.32
2022-12-12T11:17:42.354Z,7.53
2022-12-12T11:19:18.764Z,6.68
2022-12-12T11:20:21.373Z,7.78
2022-12-12T11:21:24.291Z,6.95
2022-12-12T11:22:27.926Z,7.45
2022-12-12T11:23:31.139Z,7.35
2022-12-12T11:24:35.356Z,7.05
2022-12-12T11:25:38.131Z,7.32
2022-12-12T11:27:01.017Z,6.55
2022-12-12T11:28:06.801Z,7.32
2022-12-12T11:29:27.596Z,6.47
2022-12-12T11:30:42.098Z,6.65
2022-12-12T11:31:45.734Z,7.00
2022-12-12T11:32:49.753Z,7.15
2022-12-12T11:33:57.286Z,5.50
2022-12-12T11:35:03.102Z,6.93
2022-12-12T11:36:06.775Z,6.50
2022-12-12T11:37:18.409Z,7.40
2022-12-12T11:38:30.608Z,8.07
2022-12-12T11:39:41.442Z,8.90
2022-12-12T11:40:44.938Z,6.82
2022-12-12T11:42:05.149Z,8.73
2022-12-12T11:43:23.152Z,7.97
2022-12-12T11:44:28.067Z,7.10
2022-12-12T11:45:30.683Z,8.55
2022-12-12T11:46:33.725Z,7.10
2022-12-12T11:47:44.835Z,7.03
2022-12-12T11:48:47.304Z,7.20
2022-12-12T11:49:55.697Z,8.02
2022-12-12T11:50:58.245Z,8.60
2022-12-12T11:52:21.615Z,8.98
2022-12-12T11:53:24.087Z,6.80
2022-12-12T11:54:31.120Z,8.40
2022-12-12T11:55:49.957Z,7.10
2022-12-12T11:57:12.330Z,6.80
2022-12-12T11:58:36.583Z,6.40
2022-12-12T11:59:47.542Z,8.30
2022-12-12T12:01:20.762Z,7.53
2022-12-12T12:02:44.507Z,7.05
2022-12-12T12:04:16.706Z,6.55
2022-12-12T12:06:01.562Z,7.30
2022-12-12T12:07:21.436Z,8.00
2022-12-12T12:08:52.695Z,7.72
2022-12-12T12:10:00.502Z,7.88
2022-12-12T12:11:32.913Z,7.90
2022-12-12T12:13:01.551Z,7.00
2022-12-12T12:14:29.398Z,8.00
2022-12-12T12:15:49.224Z,8.35
2022-12-12T12:17:10.790Z,8.50
2022-12-12T12:18:28.961Z,9.15
2022-12-12T12:19:42.930Z,8.18
2022-12-12T12:20:45.128Z,8.13
2022-12-12T12:21:53.419Z,9.77
2022-12-12T12:23:42.559Z,8.52
2022-12-12T12:25:11.218Z,8.43
2022-12-12T12:26:20.830Z,8.40
2022-12-12T12:27:30.769Z,9.40
2022-12-12T12:29:02.691Z,8.40
2022-12-12T12:30:25.683Z,7.95
2022-12-12T12:31:44.673Z,10.90
2022-12-12T12:33:08.557Z,8.73
2022-12-12T12:34:24.560Z,8.40
2022-12-12T12:35:37.014Z,8.80
2022-12-12T12:37:02.350Z,8.30
2022-12-12T12:38:25.666Z,9.38
2022-12-12T12:39:52.260Z,8.63
2022-12-12T12:41:33.512Z,9.70
2022-12-12T12:43:04.955Z,9.82
2022-12-12T12:44:30.310Z,9.52
2022-12-12T12:45:49.427Z,10.50
2022-12-12T12:47:20.026Z,8.75
2022-12-12T12:48:39.323Z,10.60
2022-12-12T12:49:48.392Z,9.60
2022-12-12T12:50:55.931Z,10.30
2022-12-12T12:52:06.281Z,9.52
2022-12-12T12:53:25.650Z,10.45
2022-12-12T12:54:36.136Z,14.30
2022-12-12T12:55:49.359Z,12.85
2022-12-12T12:57:01.031Z,11.30
2022-12-12T12:58:06.898Z,11.60
2022-12-12T12:59:23.019Z,10.18
2022-12-12T13:00:30.167Z,9.93
2022-12-12T13:01:40.798Z,11.18
2022-12-12T13:03:02.306Z,11.25
2022-12-12T13:04:10.465Z,10.57
2022-12-12T13:05:39.914Z,11.25
2022-12-12T13:06:56.516Z,11.02
2022-12-12T13:08:13.504Z,9.68
2022-12-12T13:09:24.116Z,10.43
2022-12-12T13:10:29.517Z,9.60
2022-12-12T13:11:38.095Z,9.43
2022-12-12T13:12:44.312Z,10.30
2022-12-12T13:13:49.153Z,9.57
2022-12-12T13:15:17.509Z,9.88
2022-12-12T13:16:31.538Z,10.63
2022-12-12T13:17:48.482Z,9.35
2022-12-12T13:19:06.239Z,10.05
2022-12-12T13:20:18.868Z,9.48
2022-12-12T13:21:37.641Z,8.68
2022-12-12T13:23:22.885Z,9.45
2022-12-12T13:24:40.321Z,9.10
2022-12-12T13:25:54.039Z,8.65
2022-12-12T13:27:11.875Z,9.38
2022-12-12T13:28:38.021Z,8.40
2022-12-12T13:29:43.265Z,10.02
2022-12-12T13:31:11.115Z,8.70
2022-12-12T13:32:46.756Z,8.05
2022-12-12T13:33:57.234Z,8.02
2022-12-12T13:35:06.642Z,7.95
2022-12-12T13:36:14.630Z,8.85
2022-12-12T13:37:20.449Z,8.30
2022-12-12T13:38:28.761Z,9.50
2022-12-12T13:39:37.681Z,10.38
2022-12-12T13:40:42.751Z,8.90
2022-12-12T13:41:57.025Z,8.38
2022-12-12T13:43:09.911Z,8.23
2022-12-12T13:44:33.565Z,8.90
2022-12-12T13:45:40.676Z,9.05
2022-12-12T13:46:43.094Z,7.82
2022-12-12T13:47:55.319Z,8.00
2022-12-12T13:49:06.729Z,9.13
2022-12-12T13:50:09.341Z,7.78
2022-12-12T13:51:32.378Z,8.02
2022-12-12T13:52:36.220Z,7.45
2022-12-12T13:53:38.482Z,8.73
2022-12-12T13:54:45.682Z,7.78
2022-12-12T13:55:48.680Z,7.10
2022-12-12T13:56:53.663Z,8.05
2022-12-12T13:58:06.711Z,8.05
2022-12-12T13:59:26.653Z,7.68
2022-12-12T14:00:30.998Z,7.00
2022-12-12T14:01:40.481Z,8.68
2022-12-12T14:02:46.043Z,6.97
2022-12-12T14:03:48.363Z,8.05
2022-12-12T14:05:13.101Z,8.63
2022-12-12T14:06:19.429Z,10.02
2022-12-12T14:07:25.862Z,10.43
2022-12-12T14:08:33.563Z,8.55
2022-12-12T14:09:48.204Z,9.40
2022-12-12T14:10:59.134Z,7.63
2022-12-12T14:12:16.175Z,9.93
2022-12-12T14:13:24.220Z,12.13
2022-12-12T14:14:26.698Z,10.35
2022-12-12T14:15:32.778Z,10.90
2022-12-12T14:16:36.169Z,10.75
2022-12-12T14:17:42.777Z,9.63
2022-12-12T14:18:51.167Z,10.02
2022-12-12T14:19:56.293Z,9.82
2022-12-12T14:21:03.606Z,10.15
2022-12-12T14:22:06.019Z,9.07
2022-12-12T14:23:23.441Z,7.93
2022-12-12T14:25:03.961Z,7.43
2022-12-12T14:26:27.499Z,8.95
2022-12-12T14:27:48.076Z,7.60
2022-12-12T14:29:18.000Z,8.40
2022-12-12T14:30:23.611Z,8.07
2022-12-12T14:31:34.981Z,9.35
2022-12-12T14:32:51.333Z,8.45
2022-12-12T14:34:25.561Z,9.48
2022-12-12T14:35:39.734Z,7.43
2022-12-12T14:37:09.840Z,8.57
2022-12-12T14:38:29.505Z,7.22
2022-12-12T14:39:48.991Z,7.80
2022-12-12T14:40:56.469Z,8.38
2022-12-12T14:42:02.633Z,8.35
2022-12-12T14:43:27.192Z,8.75
2022-12-12T14:44:36.527Z,8.02
2022-12-12T14:45:51.385Z,9.02
2022-12-12T14:46:53.768Z,9.20
2022-12-12T14:48:17.909Z,8.48
2022-12-12T14:49:20.432Z,7.75
2022-12-12T14:50:22.963Z,8.38
2022-12-12T14:51:31.608Z,8.65
2022-12-12T14:52:34.021Z,9.10
2022-12-12T14:53:39.273Z,10.43
2022-12-12T14:54:41.682Z,8.70
2022-12-12T14:55:58.573Z,7.80
2022-12-12T14:57:01.540Z,7.70
2022-12-12T14:58:03.765Z,8.48
2022-12-12T14:59:25.454Z,9.30
2022-12-12T15:00:28.638Z,7.63
2022-12-12T15:01:34.337Z,8.82
2022-12-12T15:02:40.743Z,8.45
2022-12-12T15:03:49.888Z,8.27
2022-12-12T15:05:00.876Z,8.43
2022-12-12T15:06:32.228Z,8.70
2022-12-12T15:07:38.734Z,7.95
2022-12-12T15:08:41.921Z,8.10
2022-12-12T15:09:48.507Z,8.88
2022-12-12T15:10:59.646Z,8.57
2022-12-12T15:12:11.071Z,8.82